sensor_id;sensor_type;location;lat;lon;timestamp;pressure;altitude;pressure_sealevel;temperature;humidity
35226;BME280;21813;49.686;21.766;2022-10-17T00:00:44;99562.56;;;11.16;99.30
35226;BME280;21813;49.686;21.766;2022-10-17T00:03:28;99569.47;;;11.17;99.55
35226;BME280;21813;49.686;21.766;2022-10-17T00:05:54;99566.84;;;11.17;99.73
35226;BME280;21813;49.686;21.766;2022-10-17T00:08:21;99574.97;;;11.12;99.88
35226;BME280;21813;49.686;21.766;2022-10-17T00:10:59;99576.00;;;11.10;100.00
35226;BME280;21813;49.686;21.766;2022-10-17T00:13:27;99566.69;;;11.05;100.00
35226;BME280;21813;49.686;21.766;2022-10-17T00:15:53;99584.84;;;11.07;100.00
35226;BME280;21813;49.686;21.766;2022-10-17T00:18:20;99585.91;;;11.04;100.00
35226;BME280;21813;49.686;21.766;2022-10-17T00:20:46;99579.84;;;11.04;100.00
35226;BME280;21813;49.686;21.766;2022-10-17T00:23:14;99571.47;;;10.99;100.00
35226;BME280;21813;49.686;21.766;2022-10-17T00:25:40;99574.34;;;10.94;100.00
35226;BME280;21813;49.686;21.766;2022-10-17T00:28:12;99569.31;;;10.91;100.00
35226;BME280;21813;49.686;21.766;2022-10-17T00:30:39;99562.81;;;10.84;100.00
35226;BME280;21813;49.686;21.766;2022-10-17T00:33:06;99567.38;;;10.81;100.00
35226;BME280;21813;49.686;21.766;2022-10-17T00:35:32;99572.13;;;10.74;100.00
35226;BME280;21813;49.686;21.766;2022-10-17T00:37:59;99577.34;;;10.74;100.00
35226;BME280;21813;49.686;21.766;2022-10-17T00:40:25;99568.94;;;10.69;100.00
35226;BME280;21813;49.686;21.766;2022-10-17T00:42:51;99569.16;;;10.66;100.00
35226;BME280;21813;49.686;21.766;2022-10-17T00:45:22;99564.03;;;10.64;100.00
35226;BME280;21813;49.686;21.766;2022-10-17T00:47:57;99565.97;;;10.61;100.00
35226;BME280;21813;49.686;21.766;2022-10-17T00:50:24;99566.75;;;10.63;100.00
35226;BME280;21813;49.686;21.766;2022-10-17T00:52:52;99556.88;;;10.54;100.00
35226;BME280;21813;49.686;21.766;2022-10-17T00:55:24;99568.94;;;10.55;100.00
35226;BME280;21813;49.686;21.766;2022-10-17T00:57:56;99566.75;;;10.49;100.00
35226;BME280;21813;49.686;21.766;2022-10-17T01:00:22;99562.66;;;10.45;100.00
35226;BME280;21813;49.686;21.766;2022-10-17T01:02:49;99559.47;;;10.40;100.00
35226;BME280;21813;49.686;21.766;2022-10-17T01:05:16;99562.81;;;10.42;100.00
35226;BME280;21813;49.686;21.766;2022-10-17T01:07:44;99556.88;;;10.40;100.00
35226;BME280;21813;49.686;21.766;2022-10-17T01:10:11;99561.50;;;10.35;100.00
35226;BME280;21813;49.686;21.766;2022-10-17T01:24:11;99562.22;;;10.23;100.00
35226;BME280;21813;49.686;21.766;2022-10-17T01:32:17;99576.38;;;10.18;100.00
35226;BME280;21813;49.686;21.766;2022-10-17T01:35:00;99578.97;;;10.18;100.00
35226;BME280;21813;49.686;21.766;2022-10-17T01:37:32;99573.06;;;10.15;100.00
35226;BME280;21813;49.686;21.766;2022-10-17T01:40:14;99581.16;;;10.10;100.00
35226;BME280;21813;49.686;21.766;2022-10-17T01:47:41;99572.03;;;10.03;100.00
35226;BME280;21813;49.686;21.766;2022-10-17T01:50:13;99577.25;;;10.03;100.00
35226;BME280;21813;49.686;21.766;2022-10-17T01:52:41;99567.66;;;10.04;100.00
35226;BME280;21813;49.686;21.766;2022-10-17T01:55:18;99569.44;;;10.03;100.00
35226;BME280;21813;49.686;21.766;2022-10-17T01:57:54;99576.50;;;10.01;100.00
35226;BME280;21813;49.686;21.766;2022-10-17T02:00:24;99581.69;;;10.01;100.00
35226;BME280;21813;49.686;21.766;2022-10-17T02:02:57;99579.44;;;9.95;100.00
35226;BME280;21813;49.686;21.766;2022-10-17T02:05:30;99582.22;;;9.92;100.00
35226;BME280;21813;49.686;21.766;2022-10-17T02:07:56;99587.44;;;9.92;100.00
35226;BME280;21813;49.686;21.766;2022-10-17T02:13:24;99582.41;;;9.89;100.00
35226;BME280;21813;49.686;21.766;2022-10-17T02:27:04;99590.00;;;9.78;100.00
35226;BME280;21813;49.686;21.766;2022-10-17T02:29:39;99596.38;;;9.72;100.00
35226;BME280;21813;49.686;21.766;2022-10-17T02:32:15;99606.66;;;9.75;100.00
35226;BME280;21813;49.686;21.766;2022-10-17T02:34:49;99603.34;;;9.72;100.00
35226;BME280;21813;49.686;21.766;2022-10-17T02:37:22;99603.72;;;9.66;100.00
35226;BME280;21813;49.686;21.766;2022-10-17T02:39:49;99613.19;;;9.67;100.00
35226;BME280;21813;49.686;21.766;2022-10-17T02:42:16;99603.88;;;9.63;100.00
35226;BME280;21813;49.686;21.766;2022-10-17T02:44:44;99615.06;;;9.65;100.00
35226;BME280;21813;49.686;21.766;2022-10-17T02:49:52;99623.78;;;9.64;100.00
35226;BME280;21813;49.686;21.766;2022-10-17T02:52:34;99622.09;;;9.63;100.00
35226;BME280;21813;49.686;21.766;2022-10-17T02:57:37;99631.91;;;9.58;100.00
35226;BME280;21813;49.686;21.766;2022-10-17T03:00:08;99620.09;;;9.52;100.00
35226;BME280;21813;49.686;21.766;2022-10-17T03:02:45;99625.31;;;9.52;100.00
35226;BME280;21813;49.686;21.766;2022-10-17T03:05:15;99624.63;;;9.49;100.00
35226;BME280;21813;49.686;21.766;2022-10-17T03:07:42;99631.50;;;9.50;100.00
35226;BME280;21813;49.686;21.766;2022-10-17T03:10:08;99618.81;;;9.44;100.00
35226;BME280;21813;49.686;21.766;2022-10-17T03:12:34;99626.63;;;9.44;100.00
35226;BME280;21813;49.686;21.766;2022-10-17T03:15:00;99620.09;;;9.37;100.00
35226;BME280;21813;49.686;21.766;2022-10-17T03:17:26;99631.28;;;9.39;100.00
35226;BME280;21813;49.686;21.766;2022-10-17T03:19:51;99627.91;;;9.37;100.00
35226;BME280;21813;49.686;21.766;2022-10-17T03:22:27;99627.91;;;9.37;100.00
35226;BME280;21813;49.686;21.766;2022-10-17T03:24:56;99625.50;;;9.34;100.00
35226;BME280;21813;49.686;21.766;2022-10-17T03:27:24;99629.84;;;9.33;100.00
35226;BME280;21813;49.686;21.766;2022-10-17T03:29:49;99629.06;;;9.31;100.00
35226;BME280;21813;49.686;21.766;2022-10-17T03:32:18;99634.22;;;9.32;100.00
35226;BME280;21813;49.686;21.766;2022-10-17T03:34:43;99629.16;;;9.29;100.00
35226;BME280;21813;49.686;21.766;2022-10-17T03:37:11;99636.22;;;9.27;100.00
35226;BME280;21813;49.686;21.766;2022-10-17T03:39:36;99644.94;;;9.26;100.00
35226;BME280;21813;49.686;21.766;2022-10-17T03:42:05;99635.63;;;9.22;100.00
35226;BME280;21813;49.686;21.766;2022-10-17T03:44:31;99649.47;;;9.23;100.00
35226;BME280;21813;49.686;21.766;2022-10-17T03:46:58;99640.06;;;9.20;100.00
35226;BME280;21813;49.686;21.766;2022-10-17T03:49:24;99653.91;;;9.21;100.00
35226;BME280;21813;49.686;21.766;2022-10-17T03:51:50;99644.59;;;9.17;100.00
35226;BME280;21813;49.686;21.766;2022-10-17T03:54:16;99651.56;;;9.16;100.00
35226;BME280;21813;49.686;21.766;2022-10-17T03:56:43;99646.44;;;9.15;100.00
35226;BME280;21813;49.686;21.766;2022-10-17T03:59:12;99654.31;;;9.13;100.00
35226;BME280;21813;49.686;21.766;2022-10-17T04:01:39;99659.59;;;9.12;100.00
35226;BME280;21813;49.686;21.766;2022-10-17T04:04:05;99660.44;;;9.12;100.00
35226;BME280;21813;49.686;21.766;2022-10-17T04:06:32;99649.44;;;9.07;100.00
35226;BME280;21813;49.686;21.766;2022-10-17T04:08:59;99653.00;;;9.06;100.00
35226;BME280;21813;49.686;21.766;2022-10-17T04:11:25;99650.47;;;9.05;100.00
35226;BME280;21813;49.686;21.766;2022-10-17T04:13:52;99648.09;;;9.00;100.00
35226;BME280;21813;49.686;21.766;2022-10-17T04:16:20;99648.94;;;9.01;100.00
35226;BME280;21813;49.686;21.766;2022-10-17T04:18:46;99646.41;;;8.99;100.00
35226;BME280;21813;49.686;21.766;2022-10-17T04:21:14;99649.25;;;8.95;100.00
35226;BME280;21813;49.686;21.766;2022-10-17T04:23:39;99663.72;;;9.00;100.00
35226;BME280;21813;49.686;21.766;2022-10-17T04:26:06;99667.03;;;9.02;100.00
35226;BME280;21813;49.686;21.766;2022-10-17T04:28:32;99665.53;;;8.98;100.00
35226;BME280;21813;49.686;21.766;2022-10-17T04:31:02;99669.88;;;8.98;100.00
35226;BME280;21813;49.686;21.766;2022-10-17T04:33:28;99671.56;;;8.99;100.00
35226;BME280;21813;49.686;21.766;2022-10-17T04:35:56;99673.34;;;8.98;100.00
35226;BME280;21813;49.686;21.766;2022-10-17T04:38:22;99670.72;;;8.98;100.00
35226;BME280;21813;49.686;21.766;2022-10-17T04:40:49;99675.94;;;8.98;100.00
35226;BME280;21813;49.686;21.766;2022-10-17T04:43:14;99676.78;;;8.99;100.00
35226;BME280;21813;49.686;21.766;2022-10-17T04:45:41;99683.59;;;9.01;100.00
35226;BME280;21813;49.686;21.766;2022-10-17T04:48:06;99695.50;;;9.05;100.00
35226;BME280;21813;49.686;21.766;2022-10-17T04:50:34;99690.38;;;9.04;100.00
35226;BME280;21813;49.686;21.766;2022-10-17T04:53:00;99689.53;;;9.03;100.00
35226;BME280;21813;49.686;21.766;2022-10-17T04:55:26;99686.19;;;9.01;100.00
35226;BME280;21813;49.686;21.766;2022-10-17T04:57:52;99689.53;;;9.03;100.00
35226;BME280;21813;49.686;21.766;2022-10-17T05:00:19;99688.88;;;9.00;100.00
35226;BME280;21813;49.686;21.766;2022-10-17T05:02:45;99701.78;;;9.01;100.00
35226;BME280;21813;49.686;21.766;2022-10-17T05:05:11;99705.22;;;9.02;100.00
35226;BME280;21813;49.686;21.766;2022-10-17T05:07:40;99705.44;;;8.97;100.00
35226;BME280;21813;49.686;21.766;2022-10-17T05:10:08;99719.47;;;8.95;100.00
35226;BME280;21813;49.686;21.766;2022-10-17T05:12:33;99721.06;;;8.97;100.00
35226;BME280;21813;49.686;21.766;2022-10-17T05:15:01;99722.75;;;8.98;100.00
35226;BME280;21813;49.686;21.766;2022-10-17T05:17:26;99726.19;;;8.99;100.00
35226;BME280;21813;49.686;21.766;2022-10-17T05:19:53;99730.66;;;8.97;100.00
35226;BME280;21813;49.686;21.766;2022-10-17T05:22:19;99730.72;;;8.95;100.00
35226;BME280;21813;49.686;21.766;2022-10-17T05:24:45;99732.41;;;8.96;100.00
35226;BME280;21813;49.686;21.766;2022-10-17T05:27:10;99725.50;;;8.95;100.00
35226;BME280;21813;49.686;21.766;2022-10-17T05:29:36;99728.03;;;8.97;100.00
35226;BME280;21813;49.686;21.766;2022-10-17T05:32:02;99737.50;;;8.98;100.00
35226;BME280;21813;49.686;21.766;2022-10-17T05:34:28;99731.63;;;8.94;100.00
35226;BME280;21813;49.686;21.766;2022-10-17T05:36:54;99742.56;;;9.01;100.00
35226;BME280;21813;49.686;21.766;2022-10-17T05:39:28;99730.66;;;8.97;100.00
35226;BME280;21813;49.686;21.766;2022-10-17T05:41:53;99734.66;;;9.02;100.00
35226;BME280;21813;49.686;21.766;2022-10-17T05:44:21;99743.25;;;9.04;100.00
35226;BME280;21813;49.686;21.766;2022-10-17T05:46:48;99745.78;;;9.06;100.00
35226;BME280;21813;49.686;21.766;2022-10-17T05:49:15;99745.66;;;9.07;100.00
35226;BME280;21813;49.686;21.766;2022-10-17T05:51:41;99751.47;;;9.12;100.00
35226;BME280;21813;49.686;21.766;2022-10-17T05:54:17;99756.53;;;9.15;100.00
35226;BME280;21813;49.686;21.766;2022-10-17T05:56:43;99766.72;;;9.20;100.00
35226;BME280;21813;49.686;21.766;2022-10-17T05:59:11;99758.81;;;9.21;100.00
35226;BME280;21813;49.686;21.766;2022-10-17T06:01:55;99761.09;;;9.27;100.00
35226;BME280;21813;49.686;21.766;2022-10-17T06:04:36;99759.00;;;9.34;100.00
35226;BME280;21813;49.686;21.766;2022-10-17T06:07:02;99756.00;;;9.42;100.00
35226;BME280;21813;49.686;21.766;2022-10-17T06:09:30;99756.25;;;9.53;100.00
35226;BME280;21813;49.686;21.766;2022-10-17T06:12:25;99771.00;;;9.69;100.00
35226;BME280;21813;49.686;21.766;2022-10-17T06:14:52;99777.13;;;9.84;100.00
35226;BME280;21813;49.686;21.766;2022-10-17T06:17:18;99776.28;;;9.99;100.00
35226;BME280;21813;49.686;21.766;2022-10-17T06:19:44;99771.94;;;10.15;100.00
35226;BME280;21813;49.686;21.766;2022-10-17T06:22:11;99775.28;;;10.33;100.00
35226;BME280;21813;49.686;21.766;2022-10-17T06:25:12;99784.00;;;10.48;100.00
35226;BME280;21813;49.686;21.766;2022-10-17T06:28:24;99774.56;;;10.61;100.00
35226;BME280;21813;49.686;21.766;2022-10-17T06:31:14;99776.72;;;10.69;100.00
35226;BME280;21813;49.686;21.766;2022-10-17T06:33:52;99765.31;;;10.85;100.00
35226;BME280;21813;49.686;21.766;2022-10-17T06:40:37;99769.47;;;11.60;100.00
35226;BME280;21813;49.686;21.766;2022-10-17T07:01:51;99769.66;;;15.89;86.72
35226;BME280;21813;49.686;21.766;2022-10-17T07:04:21;99768.50;;;16.14;84.60
35226;BME280;21813;49.686;21.766;2022-10-17T07:06:50;99782.56;;;16.35;83.10
35226;BME280;21813;49.686;21.766;2022-10-17T07:09:50;99785.00;;;17.11;80.41
35226;BME280;21813;49.686;21.766;2022-10-17T07:12:54;99781.03;;;17.68;77.00
35226;BME280;21813;49.686;21.766;2022-10-17T07:31:26;99804.16;;;21.46;62.45
35226;BME280;21813;49.686;21.766;2022-10-17T07:45:00;99807.59;;;21.98;57.92
35226;BME280;21813;49.686;21.766;2022-10-17T07:47:56;99816.06;;;20.81;60.38
35226;BME280;21813;49.686;21.766;2022-10-17T07:53:40;99807.41;;;18.67;67.89
35226;BME280;21813;49.686;21.766;2022-10-17T08:05:46;99802.78;;;16.77;76.26
35226;BME280;21813;49.686;21.766;2022-10-17T08:09:00;99804.50;;;16.56;77.31
35226;BME280;21813;49.686;21.766;2022-10-17T08:12:00;99803.72;;;16.45;77.91
35226;BME280;21813;49.686;21.766;2022-10-17T08:14:41;99819.31;;;16.37;78.63
35226;BME280;21813;49.686;21.766;2022-10-17T08:19:44;99813.78;;;16.28;79.39
35226;BME280;21813;49.686;21.766;2022-10-17T08:29:20;99821.69;;;16.40;78.68
35226;BME280;21813;49.686;21.766;2022-10-17T08:37:07;99808.72;;;16.59;78.27
35226;BME280;21813;49.686;21.766;2022-10-17T08:39:35;99807.25;;;16.66;78.16
35226;BME280;21813;49.686;21.766;2022-10-17T08:48:20;99808.53;;;17.03;77.10
35226;BME280;21813;49.686;21.766;2022-10-17T08:50:52;99803.44;;;17.11;77.08
35226;BME280;21813;49.686;21.766;2022-10-17T08:57:27;99810.28;;;17.44;75.56
35226;BME280;21813;49.686;21.766;2022-10-17T08:59:53;99811.06;;;17.56;75.00
35226;BME280;21813;49.686;21.766;2022-10-17T09:18:16;99816.94;;;17.99;71.40
35226;BME280;21813;49.686;21.766;2022-10-17T09:24:01;99810.88;;;18.08;71.10
35226;BME280;21813;49.686;21.766;2022-10-17T09:31:16;99820.91;;;18.24;70.77
35226;BME280;21813;49.686;21.766;2022-10-17T09:34:09;99818.72;;;18.29;70.98
35226;BME280;21813;49.686;21.766;2022-10-17T09:37:02;99817.34;;;18.35;71.45
35226;BME280;21813;49.686;21.766;2022-10-17T09:39:49;99821.78;;;18.44;71.00
35226;BME280;21813;49.686;21.766;2022-10-17T09:42:34;99827.63;;;18.47;70.79
35226;BME280;21813;49.686;21.766;2022-10-17T09:45:23;99809.28;;;18.46;70.50
35226;BME280;21813;49.686;21.766;2022-10-17T09:54:46;99812.78;;;18.56;70.97
35226;BME280;21813;49.686;21.766;2022-10-17T09:57:27;99809.19;;;18.57;70.68
35226;BME280;21813;49.686;21.766;2022-10-17T10:00:19;99817.53;;;18.62;70.92
35226;BME280;21813;49.686;21.766;2022-10-17T10:03:23;99824.88;;;18.68;71.11
35226;BME280;21813;49.686;21.766;2022-10-17T10:06:19;99818.50;;;18.61;71.17
35226;BME280;21813;49.686;21.766;2022-10-17T10:09:02;99818.38;;;18.63;71.23
35226;BME280;21813;49.686;21.766;2022-10-17T10:11:55;99820.84;;;18.64;71.26
35226;BME280;21813;49.686;21.766;2022-10-17T10:14:30;99815.16;;;18.69;71.56
35226;BME280;21813;49.686;21.766;2022-10-17T10:21:14;99806.28;;;18.79;69.53
35226;BME280;21813;49.686;21.766;2022-10-17T10:36:05;99808.50;;;19.03;68.39
35226;BME280;21813;49.686;21.766;2022-10-17T10:49:06;99808.19;;;19.16;69.23
35226;BME280;21813;49.686;21.766;2022-10-17T10:52:00;99810.69;;;19.17;68.14
35226;BME280;21813;49.686;21.766;2022-10-17T10:54:40;99810.56;;;19.19;67.38
35226;BME280;21813;49.686;21.766;2022-10-17T10:57:17;99805.41;;;19.17;67.26
35226;BME280;21813;49.686;21.766;2022-10-17T11:03:51;99800.97;;;19.18;67.47
35226;BME280;21813;49.686;21.766;2022-10-17T11:06:38;99791.66;;;19.14;67.80
35226;BME280;21813;49.686;21.766;2022-10-17T11:29:52;99777.56;;;19.23;68.93
35226;BME280;21813;49.686;21.766;2022-10-17T11:32:55;99773.94;;;19.24;68.78
35226;BME280;21813;49.686;21.766;2022-10-17T11:36:35;99767.69;;;19.25;67.77
35226;BME280;21813;49.686;21.766;2022-10-17T11:47:40;99777.13;;;19.37;66.39
35226;BME280;21813;49.686;21.766;2022-10-17T11:50:30;99762.78;;;19.30;67.69
35226;BME280;21813;49.686;21.766;2022-10-17T11:53:02;99768.63;;;19.33;68.03
35226;BME280;21813;49.686;21.766;2022-10-17T11:55:31;99769.47;;;19.34;67.43
35226;BME280;21813;49.686;21.766;2022-10-17T12:03:55;99767.34;;;19.37;67.07
35226;BME280;21813;49.686;21.766;2022-10-17T12:09:16;99764.88;;;19.36;67.48
35226;BME280;21813;49.686;21.766;2022-10-17T12:11:55;99763.91;;;19.37;67.35
35226;BME280;21813;49.686;21.766;2022-10-17T12:14:44;99757.91;;;19.35;67.10
35226;BME280;21813;49.686;21.766;2022-10-17T12:17:54;99758.34;;;19.30;67.12
35226;BME280;21813;49.686;21.766;2022-10-17T12:25:24;99755.41;;;19.33;67.56
35226;BME280;21813;49.686;21.766;2022-10-17T12:30:27;99762.78;;;19.30;67.15
35226;BME280;21813;49.686;21.766;2022-10-17T12:35:45;99758.47;;;19.29;67.88
35226;BME280;21813;49.686;21.766;2022-10-17T12:38:24;99762.13;;;19.28;68.15
35226;BME280;21813;49.686;21.766;2022-10-17T12:41:00;99751.69;;;19.26;68.93
35226;BME280;21813;49.686;21.766;2022-10-17T12:45:57;99752.78;;;19.24;67.92
35226;BME280;21813;49.686;21.766;2022-10-17T12:56:06;99765.03;;;19.25;67.58
35226;BME280;21813;49.686;21.766;2022-10-17T12:58:35;99752.94;;;19.22;67.35
35226;BME280;21813;49.686;21.766;2022-10-17T13:01:02;99760.03;;;19.22;66.75
35226;BME280;21813;49.686;21.766;2022-10-17T13:03:32;99757.84;;;19.17;67.04
35226;BME280;21813;49.686;21.766;2022-10-17T13:08:39;99747.38;;;19.16;66.44
35226;BME280;21813;49.686;21.766;2022-10-17T13:13:47;99749.50;;;19.12;67.16
35226;BME280;21813;49.686;21.766;2022-10-17T13:18:53;99740.06;;;19.10;67.44
35226;BME280;21813;49.686;21.766;2022-10-17T13:21:21;99742.53;;;19.11;67.26
35226;BME280;21813;49.686;21.766;2022-10-17T13:23:46;99734.19;;;19.06;67.70
35226;BME280;21813;49.686;21.766;2022-10-17T13:26:35;99741.28;;;19.06;67.57
35226;BME280;21813;49.686;21.766;2022-10-17T13:29:10;99746.75;;;19.04;67.71
35226;BME280;21813;49.686;21.766;2022-10-17T13:31:38;99739.91;;;19.02;67.85
35226;BME280;21813;49.686;21.766;2022-10-17T13:34:27;99739.66;;;19.05;67.72
35226;BME280;21813;49.686;21.766;2022-10-17T13:36:58;99745.91;;;19.04;67.72
35226;BME280;21813;49.686;21.766;2022-10-17T13:39:28;99733.13;;;18.99;67.92
35226;BME280;21813;49.686;21.766;2022-10-17T13:41:56;99731.56;;;18.96;67.95
35226;BME280;21813;49.686;21.766;2022-10-17T13:44:25;99741.16;;;18.97;67.96
35226;BME280;21813;49.686;21.766;2022-10-17T13:46:52;99736.84;;;18.96;68.45
35226;BME280;21813;49.686;21.766;2022-10-17T13:52:31;99733.81;;;18.91;68.60
35226;BME280;21813;49.686;21.766;2022-10-17T14:11:37;99731.34;;;18.80;69.35
35226;BME280;21813;49.686;21.766;2022-10-17T14:14:31;99729.78;;;18.78;69.27
35226;BME280;21813;49.686;21.766;2022-10-17T14:17:54;99736.22;;;18.75;69.29
35226;BME280;21813;49.686;21.766;2022-10-17T14:54:47;99728.97;;;18.29;72.25
35226;BME280;21813;49.686;21.766;2022-10-17T15:04:02;99730.50;;;18.13;72.88
35226;BME280;21813;49.686;21.766;2022-10-17T15:06:31;99735.34;;;18.07;72.96
35226;BME280;21813;49.686;21.766;2022-10-17T15:08:57;99732.69;;;18.07;73.63
35226;BME280;21813;49.686;21.766;2022-10-17T15:11:24;99737.81;;;17.99;74.24
35226;BME280;21813;49.686;21.766;2022-10-17T15:13:51;99740.28;;;17.91;73.99
35226;BME280;21813;49.686;21.766;2022-10-17T15:16:26;99744.44;;;17.84;74.52
35226;BME280;21813;49.686;21.766;2022-10-17T15:18:54;99744.97;;;17.78;74.96
35226;BME280;21813;49.686;21.766;2022-10-17T15:21:23;99737.75;;;17.71;75.29
35226;BME280;21813;49.686;21.766;2022-10-17T15:23:49;99743.66;;;17.63;75.43
35226;BME280;21813;49.686;21.766;2022-10-17T15:26:29;99731.97;;;17.56;75.91
35226;BME280;21813;49.686;21.766;2022-10-17T15:28:57;99745.66;;;17.50;76.10
35226;BME280;21813;49.686;21.766;2022-10-17T15:31:25;99744.66;;;17.41;76.46
35226;BME280;21813;49.686;21.766;2022-10-17T15:33:51;99744.63;;;17.32;76.50
35226;BME280;21813;49.686;21.766;2022-10-17T15:36:24;99758.06;;;17.29;76.53
35226;BME280;21813;49.686;21.766;2022-10-17T15:38:52;99748.88;;;17.23;76.75
35226;BME280;21813;49.686;21.766;2022-10-17T15:41:21;99750.50;;;17.14;76.92
35226;BME280;21813;49.686;21.766;2022-10-17T15:43:47;99747.53;;;17.08;77.28
35226;BME280;21813;49.686;21.766;2022-10-17T15:46:20;99748.88;;;17.02;77.75
35226;BME280;21813;49.686;21.766;2022-10-17T15:48:48;99750.66;;;16.92;77.95
35226;BME280;21813;49.686;21.766;2022-10-17T15:51:16;99758.09;;;16.87;78.53
35226;BME280;21813;49.686;21.766;2022-10-17T15:53:42;99750.97;;;16.78;78.74
35226;BME280;21813;49.686;21.766;2022-10-17T15:56:35;99756.00;;;16.70;79.40
35226;BME280;21813;49.686;21.766;2022-10-17T15:59:04;99747.34;;;16.58;80.16
35226;BME280;21813;49.686;21.766;2022-10-17T16:01:33;99748.66;;;16.53;80.28
35226;BME280;21813;49.686;21.766;2022-10-17T16:03:59;99752.75;;;16.46;80.37
35226;BME280;21813;49.686;21.766;2022-10-17T16:06:26;99757.56;;;16.41;81.02
35226;BME280;21813;49.686;21.766;2022-10-17T16:08:52;99755.41;;;16.34;80.80
35226;BME280;21813;49.686;21.766;2022-10-17T16:14:03;99752.59;;;16.26;81.05
35226;BME280;21813;49.686;21.766;2022-10-17T16:16:30;99761.53;;;16.24;81.10
35226;BME280;21813;49.686;21.766;2022-10-17T16:18:56;99750.56;;;16.19;81.23
35226;BME280;21813;49.686;21.766;2022-10-17T16:21:34;99742.47;;;16.11;81.23
35226;BME280;21813;49.686;21.766;2022-10-17T16:24:01;99751.44;;;16.08;81.48
35226;BME280;21813;49.686;21.766;2022-10-17T16:26:33;99763.03;;;16.06;81.21
35226;BME280;21813;49.686;21.766;2022-10-17T16:28:58;99761.50;;;16.03;81.76
35226;BME280;21813;49.686;21.766;2022-10-17T16:31:40;99762.56;;;16.01;81.44
35226;BME280;21813;49.686;21.766;2022-10-17T16:34:06;99769.59;;;16.00;81.22
35226;BME280;21813;49.686;21.766;2022-10-17T16:36:36;99774.16;;;15.98;81.46
35226;BME280;21813;49.686;21.766;2022-10-17T16:39:02;99765.09;;;15.91;81.74
35226;BME280;21813;49.686;21.766;2022-10-17T16:44:04;99761.03;;;15.87;81.79
35226;BME280;21813;49.686;21.766;2022-10-17T16:46:31;99754.34;;;15.83;82.44
35226;BME280;21813;49.686;21.766;2022-10-17T16:48:58;99766.78;;;15.81;82.64
35226;BME280;21813;49.686;21.766;2022-10-17T16:51:24;99753.41;;;15.73;82.83
35226;BME280;21813;49.686;21.766;2022-10-17T16:53:51;99753.66;;;15.70;82.85
35226;BME280;21813;49.686;21.766;2022-10-17T16:56:21;99753.28;;;15.63;82.75
35226;BME280;21813;49.686;21.766;2022-10-17T16:58:48;99753.28;;;15.63;83.06
35226;BME280;21813;49.686;21.766;2022-10-17T17:01:19;99750.06;;;15.60;83.47
35226;BME280;21813;49.686;21.766;2022-10-17T17:03:46;99753.53;;;15.60;83.53
35226;BME280;21813;49.686;21.766;2022-10-17T17:06:25;99752.09;;;15.56;83.88
35226;BME280;21813;49.686;21.766;2022-10-17T17:08:52;99752.94;;;15.57;83.89
35226;BME280;21813;49.686;21.766;2022-10-17T17:11:20;99753.41;;;15.51;83.96
35226;BME280;21813;49.686;21.766;2022-10-17T17:13:46;99755.53;;;15.45;84.10
35226;BME280;21813;49.686;21.766;2022-10-17T17:16:17;99766.03;;;15.45;84.61
35226;BME280;21813;49.686;21.766;2022-10-17T17:18:44;99769.88;;;15.41;84.69
35226;BME280;21813;49.686;21.766;2022-10-17T17:21:14;99773.69;;;15.37;84.58
35226;BME280;21813;49.686;21.766;2022-10-17T17:23:41;99767.25;;;15.30;84.86
35226;BME280;21813;49.686;21.766;2022-10-17T17:26:15;99770.81;;;15.29;84.73
35226;BME280;21813;49.686;21.766;2022-10-17T17:28:42;99772.72;;;15.27;85.17
35226;BME280;21813;49.686;21.766;2022-10-17T17:31:15;99771.03;;;15.26;85.18
35226;BME280;21813;49.686;21.766;2022-10-17T17:33:42;99768.91;;;15.20;85.40
35226;BME280;21813;49.686;21.766;2022-10-17T17:36:12;99771.16;;;15.14;86.06
35226;BME280;21813;49.686;21.766;2022-10-17T17:38:39;99770.06;;;15.05;86.18
35226;BME280;21813;49.686;21.766;2022-10-17T17:41:06;99771.25;;;15.01;86.61
35226;BME280;21813;49.686;21.766;2022-10-17T17:43:32;99773.38;;;14.96;86.80
35226;BME280;21813;49.686;21.766;2022-10-17T17:46:02;99769.41;;;14.90;87.11
35226;BME280;21813;49.686;21.766;2022-10-17T17:49:10;99760.44;;;14.82;87.30
35226;BME280;21813;49.686;21.766;2022-10-17T17:52:24;99761.13;;;14.73;87.53
35226;BME280;21813;49.686;21.766;2022-10-17T17:55:07;99759.47;;;14.72;88.04
35226;BME280;21813;49.686;21.766;2022-10-17T17:57:52;99751.94;;;14.67;88.28
35226;BME280;21813;49.686;21.766;2022-10-17T18:00:20;99749.53;;;14.64;88.27
35226;BME280;21813;49.686;21.766;2022-10-17T18:02:48;99755.13;;;14.59;88.53
35226;BME280;21813;49.686;21.766;2022-10-17T18:05:13;99755.13;;;14.59;88.55
35226;BME280;21813;49.686;21.766;2022-10-17T18:07:41;99765.03;;;14.56;88.73
35226;BME280;21813;49.686;21.766;2022-10-17T18:10:07;99763.69;;;14.50;88.97
35226;BME280;21813;49.686;21.766;2022-10-17T18:12:33;99757.94;;;14.45;89.35
35226;BME280;21813;49.686;21.766;2022-10-17T18:15:00;99770.13;;;14.46;89.14
35226;BME280;21813;49.686;21.766;2022-10-17T18:17:27;99774.03;;;14.41;89.83
35226;BME280;21813;49.686;21.766;2022-10-17T18:19:53;99764.06;;;14.33;90.31
35226;BME280;21813;49.686;21.766;2022-10-17T18:22:21;99759.50;;;14.24;89.96
35226;BME280;21813;49.686;21.766;2022-10-17T18:24:48;99768.50;;;14.20;90.58
35226;BME280;21813;49.686;21.766;2022-10-17T18:27:16;99756.56;;;14.16;90.55
35226;BME280;21813;49.686;21.766;2022-10-17T18:29:42;99760.59;;;14.09;90.50
35226;BME280;21813;49.686;21.766;2022-10-17T18:32:40;99762.81;;;14.02;90.88
35226;BME280;21813;49.686;21.766;2022-10-17T18:35:06;99762.94;;;14.01;91.01
35226;BME280;21813;49.686;21.766;2022-10-17T18:37:41;99766.69;;;13.97;91.13